createdAt,value
2019-02-19T00:01:16.713Z,99.90
2019-02-19T00:03:48.236Z,99.90
2019-02-19T00:06:18.328Z,99.90
2019-02-19T00:08:48.523Z,99.90
2019-02-19T00:11:18.521Z,99.90
2019-02-19T00:13:48.680Z,99.90
2019-02-19T00:16:18.905Z,99.90
2019-02-19T00:18:49.091Z,99.90
2019-02-19T00:21:19.171Z,99.90
2019-02-19T00:23:49.311Z,99.90
2019-02-19T00:26:19.613Z,99.90
2019-02-19T00:28:49.649Z,99.90
2019-02-19T00:31:19.618Z,99.90
2019-02-19T00:33:49.744Z,99.90
2019-02-19T00:36:21.519Z,99.90
2019-02-19T00:38:51.536Z,99.90
2019-02-19T00:41:21.773Z,99.90
2019-02-19T00:43:51.796Z,99.90
2019-02-19T00:46:21.865Z,99.90
2019-02-19T00:48:52.053Z,99.90
2019-02-19T00:51:22.212Z,99.90
2019-02-19T00:53:52.241Z,99.90
2019-02-19T00:56:22.436Z,99.90
2019-02-19T00:58:52.623Z,99.90
2019-02-19T01:01:22.787Z,99.90
2019-02-19T01:03:53.038Z,99.80
2019-02-19T01:06:23.176Z,99.90
2019-02-19T01:08:53.266Z,99.60
2019-02-19T01:11:24.273Z,99.30
2019-02-19T01:13:55.817Z,99.50
2019-02-19T01:16:26.156Z,99.60
2019-02-19T01:18:56.216Z,99.90
2019-02-19T01:21:26.365Z,99.90
2019-02-19T01:23:56.541Z,99.70
2019-02-19T01:26:27.588Z,99.50
2019-02-19T01:28:58.361Z,99.20
2019-02-19T01:31:28.424Z,99.00
2019-02-19T01:33:58.545Z,99.00
2019-02-19T01:36:28.602Z,99.00
2019-02-19T01:38:58.759Z,99.10
2019-02-19T01:41:30.817Z,99.20
2019-02-19T01:44:00.879Z,99.20
2019-02-19T01:46:30.935Z,98.90
2019-02-19T01:49:01.028Z,98.80
2019-02-19T01:51:32.160Z,98.80
2019-02-19T01:54:02.196Z,98.80
2019-02-19T01:56:32.291Z,98.90
2019-02-19T01:59:02.246Z,98.80
2019-02-19T02:01:32.337Z,98.80
2019-02-19T02:04:02.349Z,98.60
2019-02-19T02:06:32.397Z,98.60
2019-02-19T02:09:03.202Z,98.70
2019-02-19T02:11:34.197Z,98.40
2019-02-19T02:14:04.196Z,98.50
2019-02-19T02:16:34.397Z,98.20
2019-02-19T02:19:04.537Z,98.30
2019-02-19T02:21:34.759Z,98.30
2019-02-19T02:24:04.997Z,98.30
2019-02-19T02:26:36.900Z,98.30
2019-02-19T02:29:08.050Z,98.30
2019-02-19T02:31:38.069Z,98.50
2019-02-19T02:34:07.997Z,98.50
2019-02-19T02:36:38.078Z,98.40
2019-02-19T02:39:08.129Z,98.40
2019-02-19T02:41:38.217Z,98.60
2019-02-19T02:44:08.176Z,98.80
2019-02-19T02:46:38.339Z,98.80
2019-02-19T02:49:08.450Z,99.20
2019-02-19T02:51:39.857Z,99.10
2019-02-19T02:54:09.810Z,99.00
2019-02-19T02:56:41.799Z,99.20
2019-02-19T02:59:11.850Z,99.40
2019-02-19T03:01:41.905Z,99.30
2019-02-19T03:04:11.937Z,99.60
2019-02-19T03:07:01.138Z,99.90
2019-02-19T03:09:31.318Z,99.90
2019-02-19T03:12:01.377Z,99.90
2019-02-19T03:14:31.369Z,99.80
2019-02-19T03:17:01.397Z,99.80
2019-02-19T03:19:31.363Z,99.60
2019-02-19T03:22:01.631Z,99.40
2019-02-19T03:24:31.886Z,99.50
2019-02-19T03:27:02.018Z,99.60
2019-02-19T03:29:32.249Z,99.70
2019-02-19T03:32:02.298Z,99.60
2019-02-19T03:34:32.500Z,99.60
2019-02-19T03:37:02.771Z,99.70
2019-02-19T03:39:32.891Z,99.80
2019-02-19T03:42:03.057Z,99.50
2019-02-19T03:44:33.261Z,99.50
2019-02-19T03:47:03.543Z,99.40
2019-02-19T03:49:33.723Z,99.20
2019-02-19T03:52:03.830Z,99.00
2019-02-19T03:54:34.118Z,98.90
2019-02-19T03:57:04.640Z,98.80
2019-02-19T03:59:34.949Z,99.00
2019-02-19T04:02:06.907Z,98.90
2019-02-19T04:04:36.963Z,99.10
2019-02-19T04:07:08.062Z,98.90
2019-02-19T04:09:38.115Z,99.00
2019-02-19T04:12:08.217Z,98.90
2019-02-19T04:14:38.257Z,99.00
2019-02-19T04:17:08.302Z,98.60
2019-02-19T04:19:38.333Z,98.60
2019-02-19T04:22:08.330Z,98.40
2019-02-19T04:24:38.371Z,98.40
2019-02-19T04:27:08.348Z,98.40
2019-02-19T04:29:38.446Z,98.20
2019-02-19T04:32:08.470Z,97.90
2019-02-19T04:34:38.700Z,98.20
2019-02-19T04:37:08.896Z,98.50
2019-02-19T04:39:39.065Z,99.00
2019-02-19T04:42:10.896Z,99.20
2019-02-19T04:44:40.939Z,99.50
2019-02-19T04:47:11.970Z,99.50
2019-02-19T04:49:42.150Z,99.50
2019-02-19T04:52:13.542Z,99.40
2019-02-19T04:54:43.617Z,99.60
2019-02-19T04:57:14.097Z,99.40
2019-02-19T04:59:44.156Z,99.20
2019-02-19T05:02:14.284Z,99.20
2019-02-19T05:04:46.299Z,99.20
2019-02-19T05:07:17.456Z,98.80
2019-02-19T05:09:47.658Z,99.00
2019-02-19T05:12:18.937Z,99.10
2019-02-19T05:14:49.102Z,99.50
2019-02-19T05:17:19.171Z,99.80
2019-02-19T05:19:49.089Z,99.90
2019-02-19T05:22:20.165Z,99.90
2019-02-19T05:24:50.409Z,99.90
2019-02-19T05:27:20.558Z,99.90
2019-02-19T05:29:50.589Z,99.90
2019-02-19T05:32:20.584Z,99.90
2019-02-19T05:34:50.690Z,99.90
2019-02-19T05:37:20.941Z,99.90
2019-02-19T05:39:51.103Z,99.90
2019-02-19T05:42:21.277Z,99.90
2019-02-19T05:44:51.284Z,99.90
2019-02-19T05:47:21.276Z,99.90
2019-02-19T05:49:51.349Z,99.90
2019-02-19T05:52:21.526Z,99.90
2019-02-19T05:54:51.762Z,99.90
2019-02-19T05:57:21.837Z,99.90
2019-02-19T05:59:52.191Z,99.90
2019-02-19T06:02:22.286Z,99.90
2019-02-19T06:04:52.264Z,99.90
2019-02-19T06:07:23.889Z,99.90
2019-02-19T06:09:53.918Z,99.90
2019-02-19T06:12:23.958Z,99.90
2019-02-19T06:14:54.427Z,99.90
2019-02-19T06:17:24.719Z,99.90
2019-02-19T06:19:54.837Z,99.90
2019-02-19T06:22:24.901Z,99.90
2019-02-19T06:24:54.957Z,99.90
2019-02-19T06:27:24.928Z,99.90
2019-02-19T06:29:55.017Z,99.90
2019-02-19T06:32:26.111Z,99.90
2019-02-19T06:34:56.098Z,99.90
2019-02-19T06:37:26.182Z,99.90
2019-02-19T06:39:57.140Z,99.90
2019-02-19T06:42:27.186Z,99.90
2019-02-19T06:44:57.254Z,99.90
2019-02-19T06:47:27.274Z,99.90
2019-02-19T06:49:57.650Z,99.90
2019-02-19T06:52:27.679Z,99.90
2019-02-19T06:54:57.715Z,99.90
2019-02-19T06:57:28.716Z,99.90
2019-02-19T06:59:59.917Z,99.90
2019-02-19T07:02:39.138Z,99.90
2019-02-19T07:05:14.269Z,99.90
2019-02-19T07:07:44.389Z,99.90
2019-02-19T07:10:14.477Z,99.90
2019-02-19T07:12:45.610Z,99.90
2019-02-19T07:15:16.747Z,99.90
2019-02-19T07:17:46.964Z,99.90
2019-02-19T07:20:17.030Z,99.90
2019-02-19T07:22:47.147Z,99.90
2019-02-19T07:25:17.225Z,99.90
2019-02-19T07:27:48.298Z,99.90
2019-02-19T07:30:18.284Z,99.90
2019-02-19T07:32:48.480Z,99.90
2019-02-19T07:35:18.493Z,99.90
2019-02-19T07:37:48.528Z,99.90
2019-02-19T07:40:18.621Z,99.90
2019-02-19T07:42:48.777Z,99.90
2019-02-19T07:45:18.973Z,99.90
2019-02-19T07:47:49.189Z,99.90
2019-02-19T07:50:19.376Z,99.50
2019-02-19T07:52:49.356Z,98.90
2019-02-19T07:55:20.933Z,98.30
2019-02-19T07:57:51.118Z,97.90
2019-02-19T08:00:21.444Z,97.50
2019-02-19T08:02:51.513Z,97.30
2019-02-19T08:05:21.949Z,96.90
2019-02-19T08:07:52.018Z,97.20
2019-02-19T08:10:22.220Z,96.30
2019-02-19T08:12:52.308Z,96.30
2019-02-19T08:15:22.444Z,95.90
2019-02-19T08:17:52.677Z,95.70
2019-02-19T08:20:22.949Z,95.20
2019-02-19T08:22:54.130Z,95.00
2019-02-19T08:25:24.330Z,95.10
2019-02-19T08:27:56.264Z,95.20
2019-02-19T08:30:26.030Z,94.90
2019-02-19T08:32:55.985Z,94.70
2019-02-19T08:35:26.378Z,94.40
2019-02-19T08:37:56.593Z,94.20
2019-02-19T08:40:26.717Z,93.70
2019-02-19T08:42:56.825Z,94.30
2019-02-19T08:45:26.937Z,94.00
2019-02-19T08:47:58.488Z,93.40
2019-02-19T08:50:28.503Z,93.20
2019-02-19T08:52:58.533Z,92.90
2019-02-19T08:55:28.684Z,93.40
2019-02-19T08:57:58.822Z,92.50
2019-02-19T09:00:30.664Z,92.70
2019-02-19T09:03:00.898Z,91.40
2019-02-19T09:05:31.009Z,91.90
2019-02-19T09:08:01.126Z,91.20
2019-02-19T09:10:32.135Z,91.40
2019-02-19T09:13:02.419Z,90.50
2019-02-19T09:15:32.490Z,90.10
2019-02-19T09:18:02.584Z,88.60
2019-02-19T09:20:32.597Z,86.30
2019-02-19T09:23:02.711Z,85.60
2019-02-19T09:25:32.827Z,84.80
2019-02-19T09:28:03.790Z,84.20
2019-02-19T09:30:34.938Z,83.60
2019-02-19T09:33:05.140Z,83.70
2019-02-19T09:35:35.256Z,83.40
2019-02-19T09:38:06.757Z,84.00
2019-02-19T09:40:36.903Z,83.80
2019-02-19T09:43:06.905Z,83.70
2019-02-19T09:45:36.949Z,82.40
2019-02-19T09:48:07.050Z,80.50
2019-02-19T09:50:37.166Z,79.20
2019-02-19T09:53:10.933Z,79.20
2019-02-19T09:55:41.079Z,78.80
2019-02-19T09:58:11.087Z,78.50
2019-02-19T10:00:41.209Z,79.40
2019-02-19T10:03:11.503Z,77.60
2019-02-19T10:05:41.713Z,78.60
2019-02-19T10:08:11.878Z,77.10
2019-02-19T10:10:42.154Z,76.70
2019-02-19T10:13:12.289Z,77.30
2019-02-19T10:15:43.116Z,77.00
2019-02-19T10:18:14.171Z,74.80
2019-02-19T10:20:44.483Z,75.60
2019-02-19T10:23:14.609Z,74.00
2019-02-19T10:25:44.760Z,71.90
2019-02-19T10:28:15.017Z,72.10
2019-02-19T10:30:46.911Z,72.20
2019-02-19T10:33:17.209Z,72.70
2019-02-19T10:35:47.748Z,72.00
2019-02-19T10:38:18.109Z,71.40
2019-02-19T10:40:48.498Z,70.30
2019-02-19T10:43:18.795Z,71.00
2019-02-19T10:45:49.072Z,70.90
2019-02-19T10:48:19.473Z,70.50
2019-02-19T10:50:49.552Z,70.20
2019-02-19T10:53:21.853Z,69.50
2019-02-19T10:55:52.673Z,70.40
2019-02-19T10:58:23.436Z,68.10
2019-02-19T11:00:53.731Z,68.30
2019-02-19T11:03:23.974Z,67.80
2019-02-19T11:05:54.304Z,67.90
2019-02-19T11:08:24.462Z,67.10
2019-02-19T11:10:54.620Z,68.30
2019-02-19T11:13:24.852Z,66.40
2019-02-19T11:15:55.076Z,64.30
2019-02-19T11:18:28.514Z,63.10
2019-02-19T11:20:57.029Z,63.30
2019-02-19T11:23:27.023Z,62.30
2019-02-19T11:25:57.169Z,61.30
2019-02-19T11:28:27.270Z,61.00
2019-02-19T11:30:57.522Z,58.90
2019-02-19T11:33:27.733Z,58.00
2019-02-19T11:35:57.870Z,57.80
2019-02-19T11:38:28.033Z,56.40
2019-02-19T11:40:58.134Z,55.60
2019-02-19T11:43:28.228Z,54.60
2019-02-19T11:45:58.410Z,54.60
2019-02-19T11:48:36.590Z,53.80
2019-02-19T11:51:00.298Z,54.00
2019-02-19T11:53:30.574Z,53.90
2019-02-19T11:56:00.625Z,51.70
2019-02-19T11:58:30.777Z,51.50
2019-02-19T12:01:01.559Z,51.90
2019-02-19T12:03:32.770Z,49.90
2019-02-19T12:06:02.839Z,49.40
2019-02-19T12:08:38.766Z,48.40
2019-02-19T12:11:04.829Z,50.40
2019-02-19T12:13:35.098Z,48.60
2019-02-19T12:16:05.293Z,47.40
2019-02-19T12:18:36.566Z,47.00
2019-02-19T12:21:08.118Z,46.90
2019-02-19T12:23:38.329Z,47.30
2019-02-19T12:26:08.656Z,45.60
2019-02-19T12:28:38.974Z,45.50
2019-02-19T12:31:09.100Z,45.60
2019-02-19T12:33:39.287Z,45.60
2019-02-19T12:36:09.672Z,45.50
2019-02-19T12:38:39.957Z,44.90
2019-02-19T12:41:10.117Z,43.60
2019-02-19T12:43:41.189Z,43.40
2019-02-19T12:46:11.408Z,42.60
2019-02-19T12:48:41.618Z,42.30
2019-02-19T12:51:11.633Z,42.10
2019-02-19T12:53:41.741Z,41.10
2019-02-19T12:56:11.876Z,41.00
2019-02-19T12:58:42.033Z,41.30
2019-02-19T13:01:12.238Z,39.80
2019-02-19T13:04:03.903Z,39.20
2019-02-19T13:06:34.677Z,37.50
2019-02-19T13:09:06.038Z,38.30
2019-02-19T13:11:54.664Z,36.10
2019-02-19T13:14:28.536Z,36.40
2019-02-19T13:17:10.738Z,39.30
2019-02-19T13:19:42.820Z,42.90
2019-02-19T13:22:12.851Z,44.30
2019-02-19T13:24:44.036Z,45.70
2019-02-19T13:27:14.151Z,46.50
2019-02-19T13:29:44.351Z,47.80
2019-02-19T13:32:14.485Z,49.40
2019-02-19T13:34:44.545Z,49.60
2019-02-19T13:37:14.670Z,51.20
2019-02-19T13:39:44.839Z,52.20
2019-02-19T13:42:15.075Z,50.90
2019-02-19T13:44:45.120Z,51.90
2019-02-19T13:47:15.103Z,51.80
2019-02-19T13:49:45.118Z,52.10
2019-02-19T13:52:23.462Z,52.30
2019-02-19T13:54:57.974Z,52.50
2019-02-19T13:57:27.972Z,52.40
2019-02-19T14:00:00.145Z,51.90
2019-02-19T14:02:30.734Z,51.70
2019-02-19T14:05:01.121Z,50.30
2019-02-19T14:07:32.979Z,48.60
2019-02-19T14:10:05.149Z,47.20
2019-02-19T14:12:35.397Z,46.60
2019-02-19T14:15:24.930Z,47.90
2019-02-19T14:17:55.229Z,48.00
2019-02-19T14:20:35.472Z,48.60
2019-02-19T14:23:17.900Z,48.70
2019-02-19T14:26:07.118Z,49.80
2019-02-19T14:28:56.170Z,49.90
2019-02-19T14:31:36.705Z,50.00
2019-02-19T14:34:25.779Z,50.80
2019-02-19T14:37:09.301Z,51.70
2019-02-19T14:39:52.537Z,52.50
2019-02-19T14:42:41.730Z,53.90
2019-02-19T14:45:31.070Z,54.70
2019-02-19T14:48:22.103Z,55.10
2019-02-19T14:51:11.317Z,55.40
2019-02-19T14:54:00.405Z,55.80
2019-02-19T14:56:43.198Z,55.70
2019-02-19T14:59:32.317Z,56.40
2019-02-19T15:02:21.494Z,56.90
2019-02-19T15:05:10.700Z,57.50
2019-02-19T15:07:56.580Z,58.10
2019-02-19T15:10:36.668Z,58.20
2019-02-19T15:13:14.471Z,58.90
2019-02-19T15:16:03.660Z,59.30
2019-02-19T15:18:52.738Z,59.90
2019-02-19T15:21:41.922Z,60.30
2019-02-19T15:24:31.072Z,60.70
2019-02-19T15:27:09.130Z,61.50
2019-02-19T15:29:58.368Z,61.90
2019-02-19T15:32:47.532Z,62.40
2019-02-19T15:35:36.776Z,62.80
2019-02-19T15:38:23.077Z,63.60
2019-02-19T15:41:12.299Z,64.00
2019-02-19T15:43:52.579Z,64.30
2019-02-19T15:46:29.497Z,65.00
2019-02-19T15:49:18.597Z,65.30
2019-02-19T15:52:08.055Z,65.60
2019-02-19T15:54:48.457Z,66.40
2019-02-19T15:57:37.719Z,67.00
2019-02-19T16:00:27.258Z,67.40
2019-02-19T16:03:05.902Z,68.20
2019-02-19T16:05:55.119Z,68.60
2019-02-19T16:08:33.669Z,69.00
2019-02-19T16:11:13.344Z,69.80
2019-02-19T16:13:55.478Z,70.00
2019-02-19T16:16:55.585Z,70.50
2019-02-19T16:19:41.270Z,70.90
2019-02-19T16:22:30.506Z,71.20
2019-02-19T16:25:17.023Z,71.60
2019-02-19T16:28:06.150Z,71.70
2019-02-19T16:31:00.889Z,72.20
2019-02-19T16:34:12.899Z,72.60
2019-02-19T16:36:58.027Z,72.90
2019-02-19T16:39:55.752Z,73.50
2019-02-19T16:42:45.267Z,73.90
2019-02-19T16:45:36.698Z,74.00
2019-02-19T16:48:40.415Z,74.10
2019-02-19T16:51:31.555Z,74.60
2019-02-19T16:54:15.722Z,75.00
2019-02-19T16:57:28.902Z,75.30
2019-02-19T17:00:15.142Z,76.30
2019-02-19T17:03:14.658Z,76.10
2019-02-19T17:06:13.339Z,76.50
2019-02-19T17:09:12.100Z,76.90
2019-02-19T17:11:57.689Z,77.10
2019-02-19T17:15:00.535Z,77.60
2019-02-19T17:17:50.888Z,78.20
2019-02-19T17:20:46.188Z,78.60
2019-02-19T17:23:41.124Z,79.10
2019-02-19T17:26:33.993Z,79.40
2019-02-19T17:29:37.683Z,79.80
2019-02-19T17:32:29.124Z,80.20
2019-02-19T17:35:28.069Z,80.50
2019-02-19T17:38:14.716Z,81.00
2019-02-19T17:41:08.750Z,81.20
2019-02-19T17:43:50.463Z,81.60
2019-02-19T17:46:47.308Z,81.80
2019-02-19T17:49:45.790Z,82.00
2019-02-19T17:52:40.872Z,82.30
2019-02-19T17:55:30.791Z,82.60
2019-02-19T17:58:23.824Z,83.00
2019-02-19T18:01:07.269Z,82.90
2019-02-19T18:03:54.128Z,83.60
2019-02-19T18:06:40.047Z,83.80
2019-02-19T18:09:40.012Z,84.10
2019-02-19T18:12:31.915Z,84.30
2019-02-19T18:15:21.245Z,84.40
2019-02-19T18:18:14.959Z,84.60
2019-02-19T18:20:55.981Z,85.00
2019-02-19T18:23:27.868Z,85.50
2019-02-19T18:26:03.762Z,86.00
2019-02-19T18:28:35.832Z,86.50
2019-02-19T18:31:07.294Z,87.00
2019-02-19T18:33:47.278Z,87.20
2019-02-19T18:36:38.192Z,88.40
2019-02-19T18:39:25.884Z,88.60
2019-02-19T18:42:00.101Z,89.60
2019-02-19T18:44:30.251Z,89.90
2019-02-19T18:47:00.599Z,90.10
2019-02-19T18:49:32.250Z,90.50
2019-02-19T18:52:02.764Z,90.60
2019-02-19T18:55:09.114Z,91.10
2019-02-19T19:04:32.136Z,92.70
2019-02-19T19:10:48.229Z,93.70
2019-02-19T19:22:52.809Z,94.70
2019-02-19T19:25:28.693Z,95.10
2019-02-19T19:28:02.167Z,95.10
2019-02-19T19:30:32.791Z,94.90
2019-02-19T19:33:04.579Z,94.90
2019-02-19T19:35:35.848Z,95.10
2019-02-19T19:38:06.159Z,95.00
2019-02-19T19:40:48.297Z,95.00
2019-02-19T19:43:25.623Z,95.10
2019-02-19T19:45:58.930Z,95.10
2019-02-19T19:48:37.973Z,95.10
2019-02-19T19:51:21.331Z,95.20
2019-02-19T19:53:58.337Z,95.10
2019-02-19T19:56:37.204Z,95.40
2019-02-19T19:59:17.007Z,95.30
2019-02-19T20:01:47.385Z,95.40
2019-02-19T20:04:19.429Z,95.50
2019-02-19T20:06:49.668Z,95.40
2019-02-19T20:09:22.935Z,95.40
2019-02-19T20:11:53.448Z,95.40
2019-02-19T20:14:27.265Z,95.30
2019-02-19T20:17:01.519Z,95.40
2019-02-19T20:19:33.222Z,95.60
2019-02-19T20:22:04.032Z,95.60
2019-02-19T20:24:37.471Z,96.00
2019-02-19T20:27:10.855Z,96.00
2019-02-19T20:29:43.852Z,96.10
2019-02-19T20:32:18.127Z,96.20
2019-02-19T20:34:50.662Z,96.20
2019-02-19T20:37:23.129Z,96.30
2019-02-19T20:39:53.495Z,96.40
2019-02-19T20:42:23.810Z,96.50
2019-02-19T20:45:01.524Z,96.50
2019-02-19T20:47:34.767Z,96.60
2019-02-19T20:50:10.104Z,96.70
2019-02-19T20:52:43.604Z,96.70
2019-02-19T20:55:16.945Z,96.80
2019-02-19T20:57:49.822Z,96.70
2019-02-19T21:00:20.106Z,96.80
2019-02-19T21:02:51.022Z,96.80
2019-02-19T21:05:22.063Z,96.80
2019-02-19T21:07:52.261Z,96.80
2019-02-19T21:10:25.758Z,96.90
2019-02-19T21:12:56.944Z,96.70
2019-02-19T21:15:27.845Z,96.70
2019-02-19T21:17:58.167Z,96.70
2019-02-19T21:20:30.132Z,96.70
2019-02-19T21:23:00.880Z,97.00
2019-02-19T21:25:31.605Z,96.70
2019-02-19T21:28:01.860Z,96.80
2019-02-19T21:30:35.932Z,96.80
2019-02-19T21:33:08.771Z,96.80
2019-02-19T21:35:43.211Z,96.80
2019-02-19T21:38:16.573Z,96.80
2019-02-19T21:40:47.018Z,96.70
2019-02-19T21:43:17.555Z,96.70
2019-02-19T21:45:48.720Z,96.60
2019-02-19T21:48:19.234Z,96.50
2019-02-19T21:50:49.784Z,96.70
2019-02-19T21:53:20.454Z,96.80
2019-02-19T21:55:50.730Z,96.80
2019-02-19T21:58:21.314Z,96.60
2019-02-19T22:00:52.694Z,96.50
2019-02-19T22:03:28.844Z,96.50
2019-02-19T22:06:00.779Z,96.50
2019-02-19T22:08:31.297Z,96.40
2019-02-19T22:11:01.943Z,96.30
2019-02-19T22:13:31.976Z,96.30
2019-02-19T22:16:02.226Z,96.30
2019-02-19T22:18:32.462Z,96.40
2019-02-19T22:21:15.791Z,96.30
2019-02-19T22:23:46.432Z,96.30
2019-02-19T22:26:16.449Z,96.40
2019-02-19T22:28:46.617Z,96.30
2019-02-19T22:31:16.927Z,96.40
2019-02-19T22:33:47.218Z,96.40
2019-02-19T22:36:17.754Z,96.40
2019-02-19T22:38:49.993Z,96.50
2019-02-19T22:41:20.906Z,96.50
2019-02-19T22:43:51.151Z,96.60
2019-02-19T22:46:22.147Z,96.70
2019-02-19T22:48:52.279Z,96.80
2019-02-19T22:51:22.837Z,96.90
2019-02-19T22:54:01.848Z,97.00
2019-02-19T22:56:37.051Z,96.90
2019-02-19T22:59:07.295Z,97.10
2019-02-19T23:04:23.045Z,97.20
2019-02-19T23:06:54.419Z,97.20
2019-02-19T23:09:24.883Z,97.20
2019-02-19T23:11:56.539Z,97.20
2019-02-19T23:14:26.816Z,97.30
2019-02-19T23:16:56.998Z,97.30
2019-02-19T23:19:27.217Z,97.40
2019-02-19T23:21:57.300Z,97.40
2019-02-19T23:24:27.388Z,97.50
2019-02-19T23:26:57.529Z,97.40
2019-02-19T23:29:27.856Z,97.30
2019-02-19T23:31:58.137Z,97.30
2019-02-19T23:34:28.241Z,97.30
2019-02-19T23:37:06.061Z,97.00
2019-02-19T23:39:43.434Z,97.10
2019-02-19T23:42:08.297Z,97.00
2019-02-19T23:44:38.632Z,97.00
2019-02-19T23:47:08.757Z,96.90
2019-02-19T23:49:38.759Z,96.90
2019-02-19T23:52:09.043Z,96.90
2019-02-19T23:54:39.150Z,96.90
2019-02-19T23:57:09.553Z,96.90
2019-02-19T23:59:40.838Z,97.00
